Time;durP1;ratioP1;P1;durP2;ratioP2;P2;SDS_P1;SDS_P2;PMS_P1;PMS_P2;Temp;Humidity;BMP_temperature;BMP_pressure;BME280_temperature;BME280_humidity;BME280_pressure;Samples;Min_cycle;Max_cycle;Signal;HPM_P1;HPM_P2
2023/04/27 00:01:13;;;;;;;21.20;11.55;;;1.60;95.40;;;;;;5069675;28;20040;-69
2023/04/27 00:03:40;;;;;;;18.25;10.30;;;1.50;95.60;;;;;;5077986;28;20036;-68
2023/04/27 00:06:07;;;;;;;11.90;8.02;;;1.50;95.10;;;;;;5085473;28;20035;-68
2023/04/27 00:08:33;;;;;;;12.55;7.78;;;1.50;95.20;;;;;;5081794;28;20037;-69
2023/04/27 00:11:00;;;;;;;11.52;5.88;;;1.40;95.20;;;;;;5090202;28;20476;-69
2023/04/27 00:13:25;;;;;;;13.60;6.80;;;1.40;95.40;;;;;;5090870;28;20079;-69
2023/04/27 00:15:51;;;;;;;11.07;5.15;;;1.40;95.60;;;;;;5073903;28;20044;-69
2023/04/27 00:18:17;;;;;;;9.25;4.95;;;1.40;96.20;;;;;;5080624;28;20742;-68
2023/04/27 00:20:43;;;;;;;9.27;4.40;;;1.40;96.30;;;;;;5070226;28;20042;-69
2023/04/27 00:23:09;;;;;;;10.45;4.22;;;1.50;96.70;;;;;;5075229;28;20040;-69
2023/04/27 00:25:34;;;;;;;7.55;3.75;;;1.60;96.70;;;;;;5074412;28;20132;-68
2023/04/27 00:28:00;;;;;;;8.60;4.13;;;1.60;96.60;;;;;;5064780;28;20059;-69
2023/04/27 00:30:26;;;;;;;6.15;3.55;;;1.70;96.40;;;;;;5047921;28;20043;-69
2023/04/27 00:32:51;;;;;;;9.43;4.07;;;1.60;96.50;;;;;;5060057;28;20052;-69
2023/04/27 00:35:17;;;;;;;6.22;4.05;;;1.60;96.30;;;;;;5065744;28;20097;-68
2023/04/27 00:37:42;;;;;;;8.07;4.10;;;1.60;96.20;;;;;;5061459;28;20063;-69
2023/04/27 00:40:08;;;;;;;8.05;3.53;;;1.60;96.10;;;;;;5058043;28;20509;-69
2023/04/27 00:42:34;;;;;;;5.13;3.55;;;1.60;96.20;;;;;;5071844;28;20045;-69
2023/04/27 00:45:00;;;;;;;5.93;3.58;;;1.60;96.40;;;;;;5061019;28;20445;-68
2023/04/27 00:47:27;;;;;;;6.65;3.60;;;1.70;96.50;;;;;;5060525;28;20052;-69
2023/04/27 00:49:53;;;;;;;7.22;3.85;;;1.80;96.70;;;;;;5058086;28;20050;-69
2023/04/27 00:52:18;;;;;;;8.27;3.95;;;1.90;96.70;;;;;;5057744;28;20040;-68
2023/04/27 00:54:45;;;;;;;7.47;3.38;;;2.00;96.70;;;;;;5059727;28;20048;-69
2023/04/27 00:57:11;;;;;;;8.25;3.53;;;2.10;97.10;;;;;;5067337;28;20047;-69
2023/04/27 00:59:37;;;;;;;7.20;3.80;;;2.20;96.60;;;;;;5085786;28;20039;-69
2023/04/27 01:02:02;;;;;;;9.65;3.42;;;2.20;96.70;;;;;;5070510;28;20038;-69
2023/04/27 01:04:29;;;;;;;9.65;3.53;;;2.30;96.60;;;;;;5083802;28;20037;-68
2023/04/27 01:06:54;;;;;;;8.60;3.53;;;2.40;96.70;;;;;;5082857;28;20039;-68
2023/04/27 01:09:20;;;;;;;8.52;3.38;;;2.50;96.40;;;;;;5088111;28;20484;-69
2023/04/27 01:11:46;;;;;;;7.15;3.50;;;2.50;96.60;;;;;;5068986;28;20085;-69
2023/04/27 01:14:11;;;;;;;7.65;3.58;;;2.70;96.40;;;;;;5086731;28;20391;-69
2023/04/27 01:16:37;;;;;;;6.88;3.50;;;2.70;96.20;;;;;;5085588;28;20044;-69
2023/04/27 01:19:03;;;;;;;7.57;3.88;;;2.70;95.90;;;;;;5086098;28;20144;-69
2023/04/27 01:21:29;;;;;;;7.38;3.80;;;2.70;95.80;;;;;;5070871;28;20443;-68
2023/04/27 01:23:57;;;;;;;9.15;3.80;;;2.70;96.00;;;;;;5077555;28;20043;-68
2023/04/27 01:26:23;;;;;;;5.65;3.40;;;2.80;95.90;;;;;;5085953;28;20051;-68
2023/04/27 01:28:48;;;;;;;6.47;3.33;;;2.70;95.80;;;;;;5075190;28;20036;-69
2023/04/27 01:31:14;;;;;;;6.18;3.22;;;2.80;96.00;;;;;;5073343;28;20032;-69
2023/04/27 01:33:40;;;;;;;4.97;3.08;;;2.70;96.00;;;;;;5059836;28;20044;-68
2023/04/27 01:36:07;;;;;;;9.20;3.95;;;2.70;96.20;;;;;;5043121;28;20119;-69
2023/04/27 01:38:34;;;;;;;11.05;4.38;;;2.70;96.20;;;;;;5060948;28;20040;-69
2023/04/27 01:41:03;;;;;;;8.98;4.00;;;2.70;96.40;;;;;;5058637;28;20443;-69
2023/04/27 01:43:30;;;;;;;11.13;4.03;;;2.70;96.50;;;;;;5061005;28;20036;-69
2023/04/27 01:45:56;;;;;;;6.88;3.95;;;2.70;96.40;;;;;;5058577;28;20040;-69
2023/04/27 01:48:22;;;;;;;7.22;4.00;;;2.70;96.20;;;;;;5058531;28;20049;-69
2023/04/27 01:50:47;;;;;;;7.13;3.78;;;2.60;96.20;;;;;;5045275;28;20048;-69
2023/04/27 01:53:13;;;;;;;8.02;4.45;;;2.50;96.40;;;;;;5059462;28;20127;-68
2023/04/27 01:55:38;;;;;;;8.15;4.07;;;2.50;96.40;;;;;;5059646;28;20078;-69
2023/04/27 01:58:04;;;;;;;8.75;3.53;;;2.50;96.60;;;;;;5060129;28;20499;-68
2023/04/27 02:00:29;;;;;;;6.43;3.53;;;2.50;96.60;;;;;;5062022;28;20039;-69
2023/04/27 02:02:57;;;;;;;12.10;4.63;;;2.40;96.70;;;;;;5061959;28;20047;-68
2023/04/27 02:05:23;;;;;;;6.53;4.30;;;2.30;96.80;;;;;;5061961;28;20043;-69
2023/04/27 02:07:49;;;;;;;8.95;4.57;;;2.30;96.60;;;;;;5059966;28;20036;-68
2023/04/27 02:10:15;;;;;;;9.02;4.20;;;2.30;96.80;;;;;;5065216;28;20040;-68
2023/04/27 02:12:40;;;;;;;9.80;4.50;;;2.30;96.80;;;;;;5080225;28;20753;-68
2023/04/27 02:15:07;;;;;;;9.77;4.43;;;2.30;97.00;;;;;;5069941;28;20051;-68
2023/04/27 02:17:33;;;;;;;9.13;5.07;;;2.30;97.00;;;;;;5078235;28;20476;-68
2023/04/27 02:19:59;;;;;;;5.90;3.65;;;2.30;97.10;;;;;;5087989;28;20241;-68
2023/04/27 02:22:24;;;;;;;9.75;4.78;;;2.30;97.00;;;;;;5084944;28;20552;-69
2023/04/27 02:24:50;;;;;;;9.13;4.80;;;2.30;97.20;;;;;;5072265;28;20067;-69
2023/04/27 02:27:16;;;;;;;9.30;4.65;;;2.30;97.20;;;;;;5071996;28;20040;-68
2023/04/27 02:29:42;;;;;;;9.27;5.53;;;2.30;97.20;;;;;;5059652;28;20053;-68
2023/04/27 02:32:07;;;;;;;10.93;4.43;;;2.20;97.50;;;;;;5077628;28;20048;-69
2023/04/27 02:34:33;;;;;;;7.35;4.20;;;2.20;97.20;;;;;;5077482;28;20109;-69
2023/04/27 02:36:59;;;;;;;9.15;4.75;;;2.10;97.20;;;;;;5088507;28;20562;-68
2023/04/27 02:39:24;;;;;;;11.35;4.78;;;2.00;97.30;;;;;;5088880;28;20048;-68
2023/04/27 02:41:50;;;;;;;9.05;4.18;;;2.00;97.30;;;;;;5112783;27;20048;-68
2023/04/27 02:44:15;;;;;;;9.50;4.57;;;2.10;97.10;;;;;;5076246;28;20041;-68
2023/04/27 02:46:41;;;;;;;8.10;4.07;;;2.10;97.20;;;;;;5084053;28;20123;-68
2023/04/27 02:49:07;;;;;;;10.02;5.03;;;2.00;97.30;;;;;;5074647;28;20463;-68
2023/04/27 02:51:32;;;;;;;9.65;4.38;;;1.90;97.30;;;;;;5076186;28;20052;-68
2023/04/27 02:53:58;;;;;;;7.72;4.00;;;1.90;97.50;;;;;;5075334;28;20028;-69
2023/04/27 02:56:23;;;;;;;7.30;4.15;;;1.80;97.40;;;;;;5072137;28;20624;-69
2023/04/27 02:58:49;;;;;;;6.07;3.88;;;1.70;97.10;;;;;;5080635;28;20036;-69
2023/04/27 03:01:16;;;;;;;8.32;3.80;;;1.50;96.80;;;;;;5070643;28;20040;-69
2023/04/27 03:03:45;;;;;;;6.50;3.60;;;1.40;96.80;;;;;;5075874;28;20047;-69
2023/04/27 03:06:10;;;;;;;11.07;3.83;;;1.30;96.90;;;;;;5057037;28;20064;-69
2023/04/27 03:08:36;;;;;;;9.45;3.53;;;1.20;97.70;;;;;;5073567;28;20043;-68
2023/04/27 03:11:02;;;;;;;5.28;3.22;;;1.20;97.70;;;;;;5077534;28;20089;-68
2023/04/27 03:13:27;;;;;;;6.70;3.22;;;1.10;98.10;;;;;;5069983;28;20048;-68
2023/04/27 03:15:53;;;;;;;6.60;3.70;;;1.00;98.00;;;;;;5052435;28;20584;-69
2023/04/27 03:18:18;;;;;;;9.55;3.70;;;1.00;98.60;;;;;;5072620;28;20044;-68
2023/04/27 03:20:44;;;;;;;8.05;4.38;;;0.90;99.40;;;;;;5074748;28;20031;-67
2023/04/27 03:23:10;;;;;;;7.43;4.03;;;0.90;99.10;;;;;;5068392;28;20044;-67
2023/04/27 03:25:36;;;;;;;9.82;3.97;;;0.80;98.30;;;;;;5080380;28;20037;-67
2023/04/27 03:28:02;;;;;;;6.57;3.80;;;0.70;98.40;;;;;;5069506;28;20066;-67
2023/04/27 03:30:27;;;;;;;9.75;4.53;;;0.80;98.60;;;;;;5080867;28;20052;-67
2023/04/27 03:32:53;;;;;;;7.45;3.65;;;0.80;99.10;;;;;;5068035;28;20044;-67
2023/04/27 03:35:19;;;;;;;7.68;4.03;;;0.70;99.00;;;;;;5070490;28;20038;-68
2023/04/27 03:37:45;;;;;;;9.30;4.30;;;0.70;98.90;;;;;;5081070;28;20059;-68
2023/04/27 03:40:11;;;;;;;6.75;3.53;;;0.60;98.90;;;;;;5081132;28;20039;-68
2023/04/27 03:42:36;;;;;;;7.63;3.55;;;0.50;98.40;;;;;;5074801;28;20037;-68
2023/04/27 03:45:03;;;;;;;7.28;4.25;;;0.50;98.40;;;;;;5069679;28;20047;-68
2023/04/27 03:47:29;;;;;;;8.95;2.97;;;0.40;98.20;;;;;;5076292;28;20523;-67
2023/04/27 03:49:55;;;;;;;13.27;4.18;;;0.40;98.30;;;;;;5084925;28;20032;-67
2023/04/27 03:52:21;;;;;;;8.63;3.55;;;0.50;98.80;;;;;;5078156;28;20028;-68
2023/04/27 03:54:46;;;;;;;12.35;4.38;;;0.50;98.80;;;;;;5075095;28;20036;-67
2023/04/27 03:57:12;;;;;;;9.77;3.75;;;0.50;99.30;;;;;;5082294;28;20032;-67
2023/04/27 03:59:37;;;;;;;8.60;3.75;;;0.50;99.10;;;;;;5083634;28;20040;-67
2023/04/27 04:02:04;;;;;;;7.13;2.92;;;0.40;99.20;;;;;;5074946;28;20127;-67
2023/04/27 04:04:30;;;;;;;6.45;3.30;;;0.40;99.20;;;;;;5067618;28;20090;-67
2023/04/27 04:06:55;;;;;;;7.25;3.33;;;0.40;99.40;;;;;;5055405;28;20072;-68
2023/04/27 04:09:21;;;;;;;9.45;4.07;;;0.40;99.30;;;;;;5072490;28;20036;-67
2023/04/27 04:11:46;;;;;;;7.05;3.03;;;0.40;98.90;;;;;;5068679;28;20049;-67
2023/04/27 04:14:12;;;;;;;10.98;3.90;;;0.40;99.10;;;;;;5067735;28;20050;-67
2023/04/27 04:16:37;;;;;;;5.95;3.20;;;0.30;98.60;;;;;;5079839;28;20499;-67
2023/04/27 04:19:03;;;;;;;6.97;3.38;;;0.20;98.30;;;;;;5085159;28;20047;-68
2023/04/27 04:21:29;;;;;;;6.20;3.40;;;0.20;98.30;;;;;;5082462;28;20131;-67
2023/04/27 04:23:55;;;;;;;6.75;3.90;;;0.10;98.30;;;;;;5086524;28;20533;-68
2023/04/27 04:26:22;;;;;;;6.20;3.20;;;0.10;98.30;;;;;;5088687;28;20058;-67
2023/04/27 04:28:47;;;;;;;11.68;4.30;;;0.10;98.20;;;;;;5086510;28;20032;-67
2023/04/27 04:31:16;;;;;;;9.45;3.83;;;0.00;98.10;;;;;;5067296;28;20555;-67
2023/04/27 04:33:41;;;;;;;8.50;3.85;;;0.00;98.50;;;;;;5070030;28;20207;-67
2023/04/27 04:36:07;;;;;;;8.07;4.78;;;0.10;99.90;;;;;;5083323;28;20142;-67
2023/04/27 04:38:33;;;;;;;8.85;3.92;;;0.00;99.90;;;;;;5070288;28;20047;-67
2023/04/27 04:40:58;;;;;;;8.73;3.65;;;0.00;99.70;;;;;;5069026;28;20028;-67
2023/04/27 04:43:24;;;;;;;9.57;3.63;;;0.00;99.20;;;;;;5064291;28;20483;-67
2023/04/27 04:45:50;;;;;;;13.43;5.20;;;0.00;99.50;;;;;;5060471;28;20450;-68
2023/04/27 04:48:16;;;;;;;11.05;4.30;;;0.10;99.90;;;;;;5061149;28;20040;-67
2023/04/27 04:50:41;;;;;;;8.68;4.00;;;0.10;99.80;;;;;;5052348;28;20036;-67
2023/04/27 04:53:07;;;;;;;11.32;4.25;;;0.20;99.90;;;;;;5071510;28;20404;-68
2023/04/27 04:55:33;;;;;;;7.30;4.45;;;0.30;99.90;;;;;;5060105;28;20386;-68
2023/04/27 04:57:58;;;;;;;10.23;3.55;;;0.40;99.90;;;;;;5070597;28;20027;-67
2023/04/27 05:00:24;;;;;;;11.35;4.15;;;0.60;99.90;;;;;;5069702;28;20044;-67
2023/04/27 05:02:50;;;;;;;7.55;3.88;;;0.60;99.90;;;;;;5076514;28;20093;-67
2023/04/27 05:05:16;;;;;;;10.95;4.47;;;0.60;99.90;;;;;;5063469;28;20369;-68
2023/04/27 05:07:42;;;;;;;11.45;4.25;;;0.60;99.90;;;;;;5060679;28;20040;-68
2023/04/27 05:10:07;;;;;;;10.60;4.88;;;0.70;99.90;;;;;;5062843;28;20040;-68
2023/04/27 05:12:33;;;;;;;10.10;4.40;;;0.80;99.90;;;;;;5066117;28;20052;-67
2023/04/27 05:14:58;;;;;;;11.30;4.32;;;1.00;99.70;;;;;;5050089;28;20041;-67
2023/04/27 05:17:25;;;;;;;8.45;4.20;;;1.30;99.60;;;;;;5062007;28;20559;-67
2023/04/27 05:19:50;;;;;;;12.32;4.78;;;1.40;99.80;;;;;;5080663;28;20040;-68
2023/04/27 05:22:16;;;;;;;10.07;4.70;;;1.50;99.50;;;;;;5062026;28;20362;-67
2023/04/27 05:24:41;;;;;;;9.98;4.57;;;1.60;99.70;;;;;;5069450;28;20077;-67
2023/04/27 05:27:07;;;;;;;10.35;4.82;;;1.60;99.80;;;;;;5048778;28;20036;-67
2023/04/27 05:29:32;;;;;;;10.00;4.30;;;1.70;99.60;;;;;;5067994;28;20036;-68
2023/04/27 05:31:58;;;;;;;9.73;4.70;;;1.80;99.90;;;;;;5066828;28;20048;-67
2023/04/27 05:34:23;;;;;;;15.02;5.18;;;1.80;99.90;;;;;;5069115;28;20048;-68
2023/04/27 05:36:49;;;;;;;8.50;4.72;;;1.90;99.70;;;;;;5068492;28;20477;-67
2023/04/27 05:39:15;;;;;;;10.70;5.35;;;2.10;99.70;;;;;;5043545;28;20055;-67
2023/04/27 05:41:40;;;;;;;11.60;5.28;;;2.30;99.70;;;;;;5059668;28;20446;-67
2023/04/27 05:44:06;;;;;;;12.38;4.88;;;2.30;99.90;;;;;;5080853;28;20464;-68
2023/04/27 05:46:32;;;;;;;9.85;4.65;;;2.50;99.90;;;;;;5055983;28;20086;-67
2023/04/27 05:48:58;;;;;;;10.13;4.85;;;2.60;99.80;;;;;;5060913;28;20488;-68
2023/04/27 05:51:24;;;;;;;8.27;4.20;;;2.80;99.90;;;;;;5060104;28;20047;-67
2023/04/27 05:53:52;;;;;;;9.30;5.28;;;2.90;99.90;;;;;;5064482;28;20064;-67
2023/04/27 05:56:18;;;;;;;8.07;4.55;;;3.10;99.90;;;;;;5046760;28;20072;-67
2023/04/27 05:58:43;;;;;;;9.95;4.72;;;3.40;99.90;;;;;;5063987;28;20143;-67
2023/04/27 06:01:09;;;;;;;9.80;5.05;;;3.60;99.90;;;;;;5062079;28;20064;-68
2023/04/27 06:03:35;;;;;;;10.70;4.82;;;3.70;99.90;;;;;;5048188;28;20051;-67
2023/04/27 06:06:01;;;;;;;7.78;4.40;;;4.00;99.90;;;;;;5059500;28;20040;-66
2023/04/27 06:08:27;;;;;;;9.15;4.57;;;4.20;99.90;;;;;;5050658;28;20068;-67
2023/04/27 06:10:53;;;;;;;8.98;4.90;;;4.40;99.90;;;;;;5079758;28;20098;-67
2023/04/27 06:13:19;;;;;;;11.52;4.78;;;4.60;99.90;;;;;;5081284;28;20040;-67
2023/04/27 06:15:45;;;;;;;8.20;4.53;;;4.90;99.90;;;;;;5089891;28;20040;-67
2023/04/27 06:18:11;;;;;;;9.60;4.10;;;5.10;99.90;;;;;;5091549;27;20036;-67
2023/04/27 06:20:37;;;;;;;8.98;4.00;;;5.40;99.90;;;;;;5075814;28;20120;-67
2023/04/27 06:23:02;;;;;;;7.32;3.80;;;5.60;99.90;;;;;;5055250;28;20119;-67
2023/04/27 06:25:28;;;;;;;6.43;3.58;;;5.90;99.90;;;;;;5088035;28;20395;-67
2023/04/27 06:27:55;;;;;;;6.85;3.75;;;6.20;99.90;;;;;;5093892;28;20161;-67
2023/04/27 06:30:21;;;;;;;4.72;2.92;;;6.50;99.90;;;;;;5076227;28;20041;-67
2023/04/27 06:32:47;;;;;;;6.47;3.17;;;6.80;99.90;;;;;;5069795;28;20040;-67
2023/04/27 06:35:13;;;;;;;4.18;2.70;;;7.10;98.90;;;;;;5088279;28;20036;-68
2023/04/27 06:37:39;;;;;;;3.83;2.35;;;7.30;98.80;;;;;;5087469;28;20046;-67
2023/04/27 06:40:05;;;;;;;6.57;2.67;;;7.60;95.80;;;;;;5082141;28;20395;-67
2023/04/27 06:42:31;;;;;;;3.25;2.38;;;7.80;96.80;;;;;;5061456;28;20070;-67
2023/04/27 06:44:57;;;;;;;3.83;2.58;;;8.00;94.80;;;;;;5079085;28;20451;-67
2023/04/27 06:47:23;;;;;;;4.90;2.92;;;8.20;94.30;;;;;;5063819;28;20044;-68
2023/04/27 06:49:49;;;;;;;5.05;2.83;;;8.30;93.80;;;;;;5076174;28;20127;-67
2023/04/27 06:52:14;;;;;;;8.63;2.60;;;8.60;92.80;;;;;;5086955;28;20040;-68
2023/04/27 06:54:40;;;;;;;4.95;2.50;;;8.60;90.80;;;;;;5088426;28;20101;-67
2023/04/27 06:57:06;;;;;;;3.30;2.72;;;8.90;91.30;;;;;;5086060;28;20075;-68
2023/04/27 06:59:31;;;;;;;4.85;2.70;;;9.00;90.90;;;;;;5082324;28;20060;-67
2023/04/27 07:01:57;;;;;;;5.30;3.35;;;9.10;88.60;;;;;;5079790;28;20510;-67
2023/04/27 07:04:23;;;;;;;7.45;2.90;;;9.20;87.10;;;;;;5083548;28;20048;-67
2023/04/27 07:06:48;;;;;;;4.10;2.45;;;9.30;88.40;;;;;;5087827;28;20042;-68
2023/04/27 07:09:14;;;;;;;5.03;3.03;;;9.50;87.70;;;;;;5086300;28;20127;-67
2023/04/27 07:11:40;;;;;;;3.92;2.63;;;9.70;87.20;;;;;;5082950;28;20089;-67
2023/04/27 07:14:05;;;;;;;5.72;2.80;;;9.90;86.40;;;;;;5085748;28;20067;-67
2023/04/27 07:16:31;;;;;;;6.53;2.75;;;9.90;82.90;;;;;;5083339;28;20463;-67
2023/04/27 07:18:56;;;;;;;5.57;2.42;;;10.20;83.30;;;;;;5087367;28;20042;-67
2023/04/27 07:21:22;;;;;;;5.05;2.65;;;10.40;82.50;;;;;;5077040;28;20648;-68
2023/04/27 07:23:48;;;;;;;5.93;3.03;;;10.50;82.50;;;;;;5086064;28;20051;-68
2023/04/27 07:26:13;;;;;;;6.63;2.28;;;10.60;77.70;;;;;;5080601;28;20044;-68
2023/04/27 07:28:39;;;;;;;3.83;2.72;;;10.50;77.60;;;;;;5072602;28;20177;-68
2023/04/27 07:31:05;;;;;;;6.65;2.80;;;10.60;74.80;;;;;;5088556;28;20039;-68
2023/04/27 07:33:34;;;;;;;5.25;2.90;;;10.40;74.20;;;;;;5082714;28;20040;-68
2023/04/27 07:36:01;;;;;;;6.05;2.47;;;10.70;73.10;;;;;;5070358;28;20041;-68
2023/04/27 07:38:29;;;;;;;4.68;2.15;;;10.80;75.20;;;;;;5073493;28;20484;-68
2023/04/27 07:40:57;;;;;;;5.97;2.38;;;10.80;70.50;;;;;;5074457;28;20047;-68
2023/04/27 07:43:24;;;;;;;5.45;2.40;;;10.90;69.00;;;;;;5090887;28;20048;-68
2023/04/27 07:45:50;;;;;;;4.43;2.55;;;11.00;68.70;;;;;;5092538;28;20055;-68
2023/04/27 07:48:16;;;;;;;6.03;2.63;;;11.20;71.00;;;;;;5090910;28;20040;-67
2023/04/27 07:50:41;;;;;;;4.82;2.53;;;11.50;67.20;;;;;;5083107;28;20040;-68
2023/04/27 07:53:07;;;;;;;5.05;2.45;;;11.30;66.80;;;;;;5080735;28;20070;-68
2023/04/27 07:55:33;;;;;;;5.30;2.45;;;11.50;66.50;;;;;;5092418;28;20040;-67
2023/04/27 07:57:58;;;;;;;5.18;3.10;;;11.70;65.50;;;;;;5091798;28;20047;-68
2023/04/27 08:00:25;;;;;;;6.47;2.60;;;11.60;62.90;;;;;;5088005;28;20055;-68
2023/04/27 08:02:53;;;;;;;6.70;2.40;;;11.80;63.70;;;;;;5075229;28;20036;-68
2023/04/27 08:05:18;;;;;;;5.13;2.03;;;12.00;58.70;;;;;;5082567;28;20047;-68
2023/04/27 08:07:44;;;;;;;4.97;3.03;;;12.20;60.20;;;;;;5092286;28;20384;-68
2023/04/27 08:10:10;;;;;;;5.45;2.10;;;11.80;60.20;;;;;;5081862;28;20040;-68
2023/04/27 08:12:35;;;;;;;2.70;1.95;;;12.20;60.90;;;;;;5092529;28;20051;-69
2023/04/27 08:15:01;;;;;;;1.83;1.40;;;12.70;60.50;;;;;;5091639;28;20483;-68
2023/04/27 08:17:26;;;;;;;3.45;1.90;;;12.90;58.90;;;;;;5088478;28;20036;-68
2023/04/27 08:19:52;;;;;;;3.65;1.85;;;13.20;57.10;;;;;;5083263;28;20459;-69
2023/04/27 08:22:18;;;;;;;2.75;2.05;;;13.30;56.90;;;;;;5088852;28;20521;-68
2023/04/27 08:24:43;;;;;;;5.30;2.60;;;13.60;57.30;;;;;;5073506;28;20042;-69
2023/04/27 08:27:09;;;;;;;5.20;2.20;;;13.70;56.40;;;;;;5089902;28;20078;-67
2023/04/27 08:29:35;;;;;;;4.03;2.15;;;13.60;56.30;;;;;;5086564;28;20217;-68
2023/04/27 08:32:02;;;;;;;3.60;2.10;;;13.40;54.40;;;;;;5087304;28;20118;-68
2023/04/27 08:34:28;;;;;;;6.72;2.10;;;13.70;52.40;;;;;;5084627;28;20039;-67
2023/04/27 08:36:54;;;;;;;3.85;2.25;;;14.00;51.50;;;;;;5084655;28;20400;-68
2023/04/27 08:39:20;;;;;;;2.67;2.10;;;14.20;50.60;;;;;;5087532;28;20071;-68
2023/04/27 08:41:46;;;;;;;4.00;2.00;;;14.60;49.80;;;;;;5070477;28;20040;-67
2023/04/27 08:44:11;;;;;;;3.33;2.20;;;15.30;48.90;;;;;;5078059;28;20028;-68
2023/04/27 08:46:37;;;;;;;4.07;2.28;;;15.50;47.70;;;;;;5083008;28;20373;-68
2023/04/27 08:49:03;;;;;;;5.15;2.50;;;15.40;45.80;;;;;;5084614;28;20044;-67
2023/04/27 08:51:31;;;;;;;2.60;2.03;;;14.90;45.90;;;;;;5075283;28;20055;-67
2023/04/27 08:53:57;;;;;;;5.97;2.47;;;15.30;45.80;;;;;;5043962;28;20598;-68
2023/04/27 08:56:26;;;;;;;7.40;2.58;;;15.70;45.00;;;;;;5078338;28;20052;-68
2023/04/27 08:58:53;;;;;;;5.40;2.67;;;16.30;45.80;;;;;;5064678;28;20082;-69
2023/04/27 09:01:20;;;;;;;8.82;2.70;;;16.60;42.70;;;;;;5078035;28;20170;-69
2023/04/27 09:03:46;;;;;;;4.32;2.63;;;16.30;43.70;;;;;;5076166;28;20048;-68
2023/04/27 09:06:13;;;;;;;3.50;2.65;;;16.30;43.90;;;;;;5089718;28;20554;-68
2023/04/27 09:08:41;;;;;;;3.90;2.20;;;17.00;42.90;;;;;;5091538;28;20051;-70
2023/04/27 09:11:07;;;;;;;5.13;2.70;;;17.90;41.90;;;;;;5090404;28;20775;-68
2023/04/27 09:13:37;;;;;;;2.95;2.08;;;17.90;40.80;;;;;;5091069;28;20044;-68
2023/04/27 09:16:04;;;;;;;4.35;2.30;;;17.90;41.30;;;;;;5091551;28;20040;-68
2023/04/27 09:18:33;;;;;;;6.07;3.15;;;18.50;41.80;;;;;;5072265;28;20071;-68
2023/04/27 09:20:59;;;;;;;4.97;2.38;;;17.90;39.40;;;;;;5086545;28;20036;-68
2023/04/27 09:23:29;;;;;;;4.10;2.45;;;17.80;40.50;;;;;;5066595;28;20041;-68
2023/04/27 09:25:56;;;;;;;5.17;2.60;;;17.20;41.60;;;;;;5088500;28;20388;-68
2023/04/27 09:28:22;;;;;;;5.30;2.90;;;16.70;40.50;;;;;;5086313;28;20037;-68
2023/04/27 09:30:55;;;;;;;3.95;2.30;;;16.80;41.20;;;;;;5091186;28;20383;-68
2023/04/27 09:33:26;;;;;;;5.30;2.70;;;16.90;37.90;;;;;;5080858;28;20063;-68
2023/04/27 09:35:52;;;;;;;;;;;17.20;38.00;;;;;;5073690;28;20040;-69
2023/04/27 09:38:18;;;;;;;6.43;3.03;;;16.60;35.00;;;;;;5089031;28;19919;-67
2023/04/27 09:40:44;;;;;;;4.72;2.92;;;17.20;39.00;;;;;;5072341;28;20633;-68
2023/04/27 09:43:11;;;;;;;6.25;3.15;;;17.10;37.90;;;;;;5076779;28;20036;-68
2023/04/27 09:45:37;;;;;;;5.97;3.30;;;17.00;37.70;;;;;;5087889;28;20461;-68
2023/04/27 09:48:04;;;;;;;4.75;2.85;;;16.80;37.90;;;;;;5080915;28;20139;-68
2023/04/27 09:50:35;;;;;;;4.82;3.65;;;16.70;38.40;;;;;;5061495;28;20036;-68
2023/04/27 09:53:01;;;;;;;9.98;3.63;;;16.50;38.50;;;;;;5073412;28;20049;-69
2023/04/27 09:55:33;;;;;;;5.10;3.00;;;16.10;39.10;;;;;;5079516;28;20563;-68
2023/04/27 09:58:28;;;;;;;4.30;3.17;;;16.10;37.50;;;;;;5080994;28;20383;-67
2023/04/27 10:01:18;;;;;;;4.63;3.05;;;15.50;35.10;;;;;;5074302;28;20054;-68
2023/04/27 10:04:04;;;;;;;;;;;15.30;38.50;;;;;;5079829;28;20032;-68
2023/04/27 10:06:38;;;;;;;5.07;3.22;;;15.30;38.40;;;;;;5074342;28;19916;-68
2023/04/27 10:09:05;;;;;;;5.43;3.28;;;15.60;40.20;;;;;;5081214;28;20055;-68
2023/04/27 10:11:46;;;;;;;4.93;3.17;;;15.50;39.50;;;;;;5088948;28;20419;-69
2023/04/27 10:14:17;;;;;;;6.57;3.40;;;16.20;38.10;;;;;;5071696;28;20492;-70
2023/04/27 10:16:51;;;;;;;5.82;3.75;;;16.30;37.70;;;;;;5078763;28;20798;-69
2023/04/27 10:19:17;;;;;;;5.38;3.85;;;16.50;37.80;;;;;;5076897;28;20113;-69
2023/04/27 10:21:56;;;;;;;5.82;3.63;;;16.50;37.80;;;;;;5079074;28;20036;-68
2023/04/27 10:24:51;;;;;;;6.72;3.60;;;16.00;34.30;;;;;;5068242;28;20032;-67
2023/04/27 10:27:19;;;;;;;6.47;3.60;;;15.20;34.50;;;;;;5070035;28;20399;-67
2023/04/27 10:29:46;;;;;;;6.38;3.72;;;15.10;37.60;;;;;;5089411;28;20054;-69
2023/04/27 10:32:23;;;;;;;7.75;3.92;;;15.90;36.80;;;;;;5088279;28;20488;-67
2023/04/27 10:34:49;;;;;;;5.88;3.47;;;16.60;35.10;;;;;;5079025;28;20060;-67
2023/04/27 10:37:18;;;;;;;6.05;3.88;;;16.20;35.80;;;;;;5089249;28;20093;-67
2023/04/27 10:39:44;;;;;;;6.35;3.72;;;16.20;36.80;;;;;;5072182;28;20480;-69
2023/04/27 10:42:10;;;;;;;6.95;4.15;;;15.40;36.90;;;;;;5089206;28;20361;-68
2023/04/27 10:44:37;;;;;;;7.95;3.55;;;15.00;38.50;;;;;;5067722;28;20066;-67
2023/04/27 10:47:20;;;;;;;8.90;4.00;;;14.80;38.10;;;;;;5086017;28;20412;-69
2023/04/27 10:49:46;;;;;;;4.47;3.72;;;14.40;37.50;;;;;;5073641;28;20040;-67
2023/04/27 10:52:12;;;;;;;4.93;3.58;;;14.10;38.90;;;;;;5087507;28;20043;-67
2023/04/27 10:54:38;;;;;;;7.28;3.45;;;14.10;39.00;;;;;;5075696;28;20127;-67
2023/04/27 10:57:09;;;;;;;6.10;3.78;;;14.20;39.70;;;;;;5081861;28;20035;-68
2023/04/27 10:59:51;;;;;;;4.03;3.20;;;14.30;40.40;;;;;;5086518;28;20047;-67
2023/04/27 11:02:25;;;;;;;5.05;3.70;;;14.40;40.30;;;;;;5083975;28;20157;-68
2023/04/27 11:04:50;;;;;;;4.93;3.72;;;14.30;39.10;;;;;;5070370;28;20047;-67
2023/04/27 11:07:26;;;;;;;6.68;3.80;;;14.20;39.90;;;;;;5056832;28;20506;-69
2023/04/27 11:09:52;;;;;;;5.43;3.20;;;14.20;39.80;;;;;;5073517;28;20043;-68
2023/04/27 11:12:18;;;;;;;6.63;3.33;;;14.40;40.70;;;;;;5062788;28;20075;-69
2023/04/27 11:14:44;;;;;;;6.45;3.30;;;14.40;41.20;;;;;;5051453;28;20036;-68
2023/04/27 11:17:12;;;;;;;4.95;3.97;;;14.30;41.70;;;;;;5081564;28;20617;-68
2023/04/27 11:19:45;;;;;;;4.72;3.47;;;14.40;41.60;;;;;;5073018;28;20086;-68
2023/04/27 11:22:11;;;;;;;4.32;3.60;;;14.40;41.30;;;;;;5081714;28;20043;-68
2023/04/27 11:24:46;;;;;;;4.47;3.33;;;14.40;41.80;;;;;;5077529;28;20051;-69
2023/04/27 11:27:12;;;;;;;5.65;3.75;;;14.50;41.70;;;;;;5054439;28;20155;-67
2023/04/27 11:29:38;;;;;;;4.28;3.22;;;14.50;42.10;;;;;;5075434;28;20058;-68
2023/04/27 11:32:04;;;;;;;5.78;3.60;;;14.50;41.40;;;;;;5059388;28;20048;-67
2023/04/27 11:34:36;;;;;;;5.70;3.65;;;14.60;40.50;;;;;;5078234;28;20105;-70
2023/04/27 11:37:07;;;;;;;5.00;3.28;;;14.70;39.90;;;;;;5081078;28;20036;-68
2023/04/27 11:39:36;;;;;;;7.00;3.80;;;14.60;38.90;;;;;;5070771;28;20041;-68
2023/04/27 11:42:24;;;;;;;10.35;5.53;;;14.70;38.90;;;;;;5057878;28;20043;-68
2023/04/27 11:44:55;;;;;;;7.20;4.70;;;14.60;37.20;;;;;;5076637;28;20067;-68
2023/04/27 11:47:21;;;;;;;6.93;3.60;;;14.30;37.70;;;;;;5076078;28;20476;-68
2023/04/27 11:49:48;;;;;;;7.18;3.45;;;14.30;38.90;;;;;;5071378;28;20140;-67
2023/04/27 11:52:14;;;;;;;6.82;3.85;;;14.20;39.00;;;;;;5072338;28;20040;-67
2023/04/27 11:54:49;;;;;;;6.00;4.07;;;14.10;40.20;;;;;;5087803;28;20491;-68
2023/04/27 11:57:15;;;;;;;4.95;3.53;;;14.00;39.70;;;;;;5055458;28;20040;-68
2023/04/27 11:59:41;;;;;;;5.05;3.55;;;13.80;40.20;;;;;;5087412;28;20028;-67
2023/04/27 12:02:07;;;;;;;5.95;3.42;;;13.90;40.30;;;;;;5072465;28;20051;-68
2023/04/27 12:04:33;;;;;;;4.60;3.13;;;13.60;38.50;;;;;;5078607;28;20040;-69
2023/04/27 12:07:01;;;;;;;6.97;3.63;;;13.40;39.80;;;;;;5074259;28;20047;-68
2023/04/27 12:09:27;;;;;;;5.20;3.78;;;13.60;39.80;;;;;;5070611;28;20028;-69
2023/04/27 12:11:53;;;;;;;4.65;3.22;;;13.50;39.60;;;;;;5075106;28;20052;-68
2023/04/27 12:14:19;;;;;;;5.47;3.22;;;13.50;40.40;;;;;;5088172;28;20086;-68
2023/04/27 12:16:45;;;;;;;4.22;2.95;;;13.60;40.80;;;;;;5086539;28;20119;-68
2023/04/27 12:19:10;;;;;;;4.30;3.08;;;13.80;41.10;;;;;;5089897;28;20043;-68
2023/04/27 12:21:36;;;;;;;6.47;2.95;;;14.00;41.30;;;;;;5091109;28;20036;-69
2023/04/27 12:24:02;;;;;;;5.88;2.80;;;14.00;41.50;;;;;;5078105;28;20089;-68
2023/04/27 12:26:28;;;;;;;5.38;3.38;;;14.10;41.70;;;;;;5081032;28;20043;-69
2023/04/27 12:28:53;;;;;;;4.80;3.25;;;14.30;41.00;;;;;;5078094;28;20048;-68
2023/04/27 12:31:23;;;;;;;5.97;3.28;;;14.00;40.50;;;;;;5081242;28;20135;-67
2023/04/27 12:33:49;;;;;;;4.28;3.20;;;14.10;40.80;;;;;;5081557;28;20036;-69
2023/04/27 12:36:16;;;;;;;7.57;2.95;;;14.30;40.80;;;;;;5075282;28;20113;-68
2023/04/27 12:38:41;;;;;;;4.20;2.83;;;14.50;41.00;;;;;;5083547;28;20088;-69
2023/04/27 12:41:07;;;;;;;8.23;3.75;;;14.60;41.30;;;;;;5058186;28;20044;-68
2023/04/27 12:43:35;;;;;;;5.25;3.40;;;14.60;40.40;;;;;;5070161;28;20507;-68
2023/04/27 12:46:00;;;;;;;5.95;3.28;;;14.50;40.00;;;;;;5071311;28;20130;-69
2023/04/27 12:48:26;;;;;;;4.20;3.00;;;14.50;39.80;;;;;;5052871;28;20179;-68
2023/04/27 12:50:52;;;;;;;6.50;3.50;;;14.60;39.90;;;;;;5089198;28;20044;-67